Time;durP1;ratioP1;P1;durP2;ratioP2;P2;SDS_P1;SDS_P2;PMS_P1;PMS_P2;Temp;Humidity;BMP_temperature;BMP_pressure;BME280_temperature;BME280_humidity;BME280_pressure;Samples;Min_cycle;Max_cycle;Signal;HPM_P1;HPM_P2
2021/05/24 00:00:14;;;;;;;1.20;1.20;;;12.40;51.40;;;;;;5001057;28;20432;-89
2021/05/24 00:02:41;;;;;;;1.97;1.03;;;12.60;51.60;;;;;;5007376;28;20514;-88
2021/05/24 00:05:10;;;;;;;0.87;0.87;;;12.50;51.60;;;;;;5010389;28;20778;-89
2021/05/24 00:07:35;;;;;;;2.20;1.00;;;12.60;51.80;;;;;;5028458;28;20778;-89
2021/05/24 00:10:03;;;;;;;1.10;1.10;;;12.60;51.60;;;;;;5011754;28;20424;-89
2021/05/24 00:12:29;;;;;;;0.90;0.90;;;12.70;51.60;;;;;;5005631;28;20180;-88
2021/05/24 00:14:54;;;;;;;0.97;0.97;;;12.60;51.90;;;;;;4999253;28;20432;-88
2021/05/24 00:17:21;;;;;;;2.50;1.20;;;12.60;52.20;;;;;;4999546;28;20177;-88
2021/05/24 00:19:46;;;;;;;0.90;0.90;;;12.60;52.20;;;;;;5017060;28;20181;-89
2021/05/24 00:22:12;;;;;;;1.13;1.13;;;12.70;52.00;;;;;;5017098;28;20403;-88
2021/05/24 00:24:38;;;;;;;18.03;15.93;;;12.70;52.40;;;;;;5016724;28;20183;-89
2021/05/24 00:27:04;;;;;;;1.40;1.30;;;12.50;52.60;;;;;;4998715;28;20403;-89
2021/05/24 00:29:30;;;;;;;1.00;1.00;;;12.50;53.20;;;;;;5016390;28;20172;-88
2021/05/24 00:31:58;;;;;;;0.80;0.80;;;12.50;53.10;;;;;;4998730;28;20421;-88
2021/05/24 00:34:24;;;;;;;1.50;1.00;;;12.50;53.50;;;;;;4999172;28;20169;-89
2021/05/24 00:36:49;;;;;;;1.00;1.00;;;13.60;54.10;;;;;;5017268;28;20969;-89
2021/05/24 00:39:15;;;;;;;0.77;0.77;;;12.50;53.40;;;;;;5016575;28;20215;-89
2021/05/24 00:41:42;;;;;;;0.80;0.80;;;12.50;53.40;;;;;;5018031;28;20640;-88
2021/05/24 00:44:09;;;;;;;2.67;1.63;;;13.40;54.20;;;;;;5016006;28;20248;-88
2021/05/24 00:46:35;;;;;;;1.43;1.40;;;12.40;53.60;;;;;;5015719;28;20762;-88
2021/05/24 00:49:02;;;;;;;0.90;0.90;;;12.30;54.20;;;;;;4999979;28;20432;-88
2021/05/24 00:51:29;;;;;;;1.10;1.10;;;12.50;54.30;;;;;;5010003;28;20415;-88
2021/05/24 00:53:56;;;;;;;1.80;1.13;;;13.60;55.60;;;;;;5010839;28;20479;-87
2021/05/24 00:56:23;;;;;;;1.10;1.10;;;12.10;54.20;;;;;;5012377;28;20423;-87
2021/05/24 00:58:49;;;;;;;1.53;1.00;;;12.40;54.50;;;;;;5017503;28;20468;-88
2021/05/24 01:01:15;;;;;;;1.37;0.80;;;12.30;54.80;;;;;;5002819;28;20410;-89
2021/05/24 01:03:41;;;;;;;1.30;1.30;;;12.50;54.90;;;;;;5019775;28;20859;-88
2021/05/24 01:06:07;;;;;;;0.87;0.87;;;13.80;55.70;;;;;;4999577;28;20407;-87
2021/05/24 01:08:32;;;;;;;1.60;0.80;;;14.10;55.60;;;;;;4999413;28;20426;-88
2021/05/24 01:10:58;;;;;;;2.77;2.57;;;12.40;54.50;;;;;;5016827;28;20416;-87
2021/05/24 01:13:24;;;;;;;2.37;2.20;;;12.80;54.80;;;;;;5000487;28;20778;-88
2021/05/24 01:15:50;;;;;;;1.43;1.43;;;12.90;54.60;;;;;;5016681;28;20629;-88
2021/05/24 01:18:16;;;;;;;0.73;0.73;;;12.70;54.50;;;;;;5016270;28;20192;-89
2021/05/24 01:20:42;;;;;;;0.80;0.80;;;13.00;54.30;;;;;;5015511;28;20493;-90
2021/05/24 01:23:10;;;;;;;1.20;1.20;;;13.10;54.30;;;;;;4999445;28;20434;-88
2021/05/24 01:25:39;;;;;;;2.67;2.57;;;13.10;54.40;;;;;;4998105;28;20503;-87
2021/05/24 01:28:06;;;;;;;3.00;0.80;;;13.20;54.10;;;;;;5015748;28;20411;-89
2021/05/24 01:30:32;;;;;;;1.00;1.00;;;13.30;54.20;;;;;;4997563;28;20415;-89
2021/05/24 01:32:58;;;;;;;1.33;0.90;;;13.30;54.10;;;;;;4997873;28;20431;-89
2021/05/24 01:35:24;;;;;;;1.10;1.10;;;13.30;54.10;;;;;;5015410;28;20175;-89
2021/05/24 01:37:49;;;;;;;0.93;0.93;;;13.30;54.10;;;;;;5015386;28;20451;-87
2021/05/24 01:40:16;;;;;;;0.80;0.80;;;13.30;54.40;;;;;;4999756;28;20209;-88
2021/05/24 01:42:42;;;;;;;1.07;0.93;;;13.30;54.30;;;;;;4998327;28;20184;-88
2021/05/24 01:45:09;;;;;;;0.73;0.73;;;13.20;54.40;;;;;;4998857;28;20470;-89
2021/05/24 01:47:34;;;;;;;0.80;0.80;;;13.20;54.40;;;;;;4997733;28;20787;-88
2021/05/24 01:50:00;;;;;;;1.10;1.10;;;13.20;55.10;;;;;;4998024;28;20416;-88
2021/05/24 01:52:25;;;;;;;1.13;1.10;;;13.00;54.80;;;;;;4998606;28;20172;-89
2021/05/24 01:54:51;;;;;;;0.73;0.73;;;12.90;55.20;;;;;;5015762;28;20527;-88
2021/05/24 01:57:19;;;;;;;3.40;1.20;;;12.90;55.10;;;;;;4997760;28;20526;-86
2021/05/24 01:59:45;;;;;;;1.80;1.20;;;14.50;56.50;;;;;;4998546;28;20644;-87
2021/05/24 02:02:10;;;;;;;1.27;0.93;;;12.90;55.40;;;;;;4997955;28;20473;-88
2021/05/24 02:04:36;;;;;;;1.00;1.00;;;12.80;55.70;;;;;;5015414;28;20181;-88
2021/05/24 02:07:02;;;;;;;1.80;0.70;;;13.20;56.20;;;;;;4997996;28;20255;-88
2021/05/24 02:09:29;;;;;;;1.93;1.17;;;12.70;55.90;;;;;;5015423;28;20255;-89
2021/05/24 02:11:55;;;;;;;1.40;1.40;;;12.70;55.80;;;;;;5001046;28;20510;-88
2021/05/24 02:14:20;;;;;;;0.80;0.80;;;12.70;55.70;;;;;;5005628;28;20889;-88
2021/05/24 02:16:51;;;;;;;1.03;0.80;;;12.70;55.70;;;;;;5018872;28;20490;-89
2021/05/24 02:19:19;;;;;;;0.70;0.70;;;12.80;55.50;;;;;;5014921;28;20966;-89
2021/05/24 02:21:45;;;;;;;0.73;0.73;;;12.80;55.50;;;;;;5015320;28;20419;-88
2021/05/24 02:24:12;;;;;;;0.90;0.90;;;12.80;55.40;;;;;;5016475;28;20566;-89
2021/05/24 02:26:41;;;;;;;1.07;0.90;;;12.80;55.30;;;;;;4998531;28;20420;-89
2021/05/24 02:29:07;;;;;;;1.37;0.77;;;12.80;55.40;;;;;;5015756;28;20438;-89
2021/05/24 02:31:34;;;;;;;0.73;0.73;;;12.80;55.40;;;;;;5011415;28;20427;-89
2021/05/24 02:34:00;;;;;;;0.77;0.77;;;12.80;55.30;;;;;;5026966;28;20418;-89
2021/05/24 02:36:26;;;;;;;0.90;0.90;;;12.90;55.10;;;;;;5017586;28;20782;-89
2021/05/24 02:38:53;;;;;;;3.17;2.20;;;13.20;55.30;;;;;;5015094;28;20486;-88
2021/05/24 02:41:19;;;;;;;0.70;0.70;;;12.80;55.20;;;;;;4997631;28;20416;-87
2021/05/24 02:43:45;;;;;;;0.70;0.70;;;13.00;54.80;;;;;;5014793;28;20478;-88
2021/05/24 02:46:11;;;;;;;1.13;0.90;;;13.10;54.40;;;;;;5014850;28;20810;-88
2021/05/24 02:48:38;;;;;;;0.80;0.80;;;13.10;54.40;;;;;;4997255;28;20546;-88
2021/05/24 02:51:04;;;;;;;0.60;0.60;;;13.10;54.40;;;;;;5015251;28;20415;-88
2021/05/24 02:53:30;;;;;;;0.80;0.80;;;13.10;54.50;;;;;;4996803;28;20947;-89
2021/05/24 02:55:55;;;;;;;1.00;1.00;;;13.10;54.60;;;;;;4997017;28;20419;-89
2021/05/24 02:58:21;;;;;;;0.87;0.87;;;13.10;54.50;;;;;;5014046;28;20200;-88
2021/05/24 03:00:46;;;;;;;0.83;0.83;;;13.00;54.50;;;;;;4997255;28;20177;-88
2021/05/24 03:03:13;;;;;;;1.47;0.97;;;13.10;54.50;;;;;;5015519;28;20200;-87
2021/05/24 03:05:39;;;;;;;0.83;0.83;;;13.00;54.70;;;;;;4997901;28;20240;-87
2021/05/24 03:08:05;;;;;;;0.87;0.87;;;13.00;54.80;;;;;;5017742;28;20448;-88
2021/05/24 03:10:30;;;;;;;0.73;0.73;;;13.00;54.80;;;;;;5000241;28;20628;-88
2021/05/24 03:12:56;;;;;;;0.90;0.90;;;13.00;54.60;;;;;;5019271;28;20422;-88
2021/05/24 03:15:22;;;;;;;2.33;1.63;;;13.00;54.70;;;;;;5018408;28;20624;-88
2021/05/24 03:17:48;;;;;;;2.53;0.80;;;13.80;55.20;;;;;;5000610;28;20211;-88
2021/05/24 03:20:17;;;;;;;2.50;1.00;;;12.90;54.60;;;;;;5018216;28;20424;-89
2021/05/24 03:22:45;;;;;;;0.80;0.80;;;13.00;54.70;;;;;;5019193;28;20161;-88
2021/05/24 03:25:12;;;;;;;0.80;0.80;;;13.00;54.80;;;;;;5019244;28;20416;-89
2021/05/24 03:27:38;;;;;;;3.40;3.10;;;13.00;54.80;;;;;;5001999;28;20450;-89
2021/05/24 03:30:05;;;;;;;0.90;0.90;;;13.00;54.60;;;;;;5018965;28;20411;-88
2021/05/24 03:32:32;;;;;;;0.90;0.87;;;13.00;54.80;;;;;;5018159;28;20408;-88
2021/05/24 03:34:57;;;;;;;1.17;0.90;;;13.10;54.40;;;;;;5001875;28;20419;-88
2021/05/24 03:37:23;;;;;;;0.83;0.83;;;13.00;54.40;;;;;;5017720;28;20934;-88
2021/05/24 03:39:48;;;;;;;0.80;0.80;;;13.00;54.50;;;;;;5017937;28;20226;-88
2021/05/24 03:42:14;;;;;;;0.60;0.60;;;13.00;54.50;;;;;;5000932;28;20307;-87
2021/05/24 03:44:43;;;;;;;2.90;0.80;;;12.60;54.00;;;;;;5019624;28;20231;-88
2021/05/24 03:47:10;;;;;;;1.43;0.90;;;13.00;54.50;;;;;;5021510;28;20215;-87
2021/05/24 03:49:35;;;;;;;3.60;1.10;;;13.00;53.80;;;;;;5020560;28;20416;-88
2021/05/24 03:52:01;;;;;;;0.90;0.90;;;13.00;53.90;;;;;;5019541;28;20891;-87
2021/05/24 03:54:26;;;;;;;7.40;1.37;;;13.10;53.40;;;;;;5018650;28;20169;-88
2021/05/24 03:56:52;;;;;;;1.03;0.90;;;12.90;53.20;;;;;;5001347;28;20628;-87
2021/05/24 03:59:17;;;;;;;1.83;1.10;;;13.20;53.30;;;;;;5017288;28;20243;-87
2021/05/24 04:01:43;;;;;;;1.03;1.00;;;13.00;53.30;;;;;;5017804;28;20169;-88
2021/05/24 04:04:09;;;;;;;3.27;0.93;;;12.60;52.90;;;;;;5019260;28;20173;-89
2021/05/24 04:06:35;;;;;;;1.03;0.90;;;13.50;53.50;;;;;;5000777;28;20168;-88
2021/05/24 04:09:03;;;;;;;1.10;1.00;;;14.00;54.40;;;;;;5000297;28;20283;-88
2021/05/24 04:11:28;;;;;;;0.70;0.70;;;13.50;53.40;;;;;;5001855;28;20919;-88
2021/05/24 04:13:54;;;;;;;2.30;1.30;;;13.60;53.80;;;;;;5017832;28;20422;-88
2021/05/24 04:16:21;;;;;;;0.50;0.50;;;13.60;53.00;;;;;;5000704;28;20602;-88
2021/05/24 04:18:47;;;;;;;3.50;1.20;;;13.10;52.60;;;;;;5018308;28;20471;-88
2021/05/24 04:21:14;;;;;;;1.23;1.17;;;13.30;53.30;;;;;;5001492;28;20420;-89
2021/05/24 04:23:40;;;;;;;0.70;0.70;;;13.60;53.00;;;;;;5017749;28;20832;-88
2021/05/24 04:26:06;;;;;;;0.97;0.80;;;13.40;52.70;;;;;;5017535;28;20400;-87
2021/05/24 04:28:32;;;;;;;0.87;0.87;;;14.50;53.60;;;;;;5017733;28;20416;-89
2021/05/24 04:30:57;;;;;;;0.87;0.87;;;13.60;52.70;;;;;;5017624;28;20578;-88
2021/05/24 04:33:23;;;;;;;0.80;0.80;;;13.60;52.50;;;;;;4999537;28;20172;-88
2021/05/24 04:35:49;;;;;;;0.70;0.70;;;13.60;53.00;;;;;;5018058;28;20586;-88
2021/05/24 04:38:14;;;;;;;1.13;0.67;;;13.60;53.10;;;;;;5017307;28;20275;-88
2021/05/24 04:40:40;;;;;;;0.60;0.60;;;13.70;52.80;;;;;;5000444;28;20184;-88
2021/05/24 04:43:06;;;;;;;0.80;0.80;;;13.70;52.60;;;;;;5017790;28;20220;-88
2021/05/24 04:45:31;;;;;;;1.07;0.70;;;13.20;52.40;;;;;;4999450;28;20227;-88
2021/05/24 04:47:57;;;;;;;1.00;1.00;;;13.80;52.40;;;;;;4999872;28;20311;-89
2021/05/24 04:50:23;;;;;;;1.93;0.93;;;13.90;52.20;;;;;;4999615;28;20176;-87
2021/05/24 04:52:48;;;;;;;1.50;1.03;;;14.10;52.00;;;;;;5016615;28;20223;-88
2021/05/24 04:55:14;;;;;;;0.93;0.93;;;14.30;51.70;;;;;;5015414;28;20628;-88
2021/05/24 04:57:43;;;;;;;0.80;0.80;;;15.10;51.80;;;;;;4998166;28;20172;-88
2021/05/24 05:00:10;;;;;;;1.20;0.80;;;15.60;50.90;;;;;;5015732;28;20419;-88
2021/05/24 05:02:37;;;;;;;1.53;0.70;;;15.80;48.80;;;;;;5016012;28;20907;-88
2021/05/24 05:05:04;;;;;;;1.17;0.80;;;16.40;49.00;;;;;;5015597;28;20434;-88
2021/05/24 05:07:31;;;;;;;3.70;1.00;;;16.40;47.90;;;;;;5016122;28;20426;-88
2021/05/24 05:09:57;;;;;;;1.13;0.97;;;16.10;47.70;;;;;;4998013;28;20427;-88
2021/05/24 05:12:23;;;;;;;2.20;2.10;;;16.10;47.80;;;;;;5016842;28;20418;-88
2021/05/24 05:14:49;;;;;;;0.80;0.80;;;15.90;48.00;;;;;;4999786;28;20432;-88
2021/05/24 05:17:15;;;;;;;2.00;1.17;;;16.40;49.10;;;;;;4999499;28;20510;-88
2021/05/24 05:19:40;;;;;;;1.03;0.77;;;15.50;48.80;;;;;;5006106;28;20212;-89
2021/05/24 05:22:06;;;;;;;1.20;1.10;;;16.50;49.60;;;;;;5019199;28;20176;-89
2021/05/24 05:24:31;;;;;;;0.87;0.87;;;14.90;48.90;;;;;;5036075;28;20177;-89
2021/05/24 05:26:57;;;;;;;0.57;0.57;;;16.40;50.10;;;;;;5034460;28;20160;-89
2021/05/24 05:29:22;;;;;;;1.10;1.00;;;16.20;49.70;;;;;;5017452;28;20525;-88
2021/05/24 05:31:48;;;;;;;2.07;0.83;;;15.40;49.20;;;;;;4997982;28;20638;-88
2021/05/24 05:34:14;;;;;;;2.43;0.90;;;14.80;48.40;;;;;;4997886;28;20168;-88
2021/05/24 05:36:39;;;;;;;0.80;0.80;;;15.60;48.30;;;;;;4997362;28;20222;-88
2021/05/24 05:39:05;;;;;;;0.93;0.83;;;16.40;48.30;;;;;;5015026;28;20283;-88
2021/05/24 05:41:31;;;;;;;1.27;0.90;;;16.00;48.00;;;;;;4998063;28;20177;-87
2021/05/24 05:43:57;;;;;;;0.70;0.70;;;17.00;47.10;;;;;;5015716;28;20477;-87
2021/05/24 05:46:22;;;;;;;1.23;0.67;;;16.70;45.90;;;;;;5016438;28;20172;-87
2021/05/24 05:48:48;;;;;;;1.00;0.87;;;18.30;46.60;;;;;;5024386;28;20179;-88
2021/05/24 05:51:13;;;;;;;0.77;0.50;;;16.50;45.30;;;;;;5020547;28;20192;-87
2021/05/24 05:53:39;;;;;;;1.87;0.77;;;17.40;44.80;;;;;;5016085;28;20199;-87
2021/05/24 05:56:05;;;;;;;0.80;0.80;;;17.70;44.80;;;;;;5014639;28;20173;-87
2021/05/24 05:58:31;;;;;;;0.87;0.87;;;17.80;44.00;;;;;;4996878;28;20207;-87
2021/05/24 06:01:04;;;;;;;1.03;1.03;;;18.00;43.50;;;;;;5013931;28;20411;-87
2021/05/24 06:03:31;;;;;;;2.43;1.50;;;19.10;44.00;;;;;;4996745;28;20208;-87
2021/05/24 06:05:56;;;;;;;0.80;0.80;;;18.60;43.10;;;;;;4997371;28;20784;-88
2021/05/24 06:08:22;;;;;;;1.37;1.00;;;20.00;43.10;;;;;;5014452;28;20411;-86
2021/05/24 06:10:48;;;;;;;0.90;0.90;;;19.10;41.70;;;;;;5014110;28;20173;-88
2021/05/24 06:13:13;;;;;;;0.80;0.77;;;19.10;40.80;;;;;;4996464;28;20214;-88
2021/05/24 06:15:39;;;;;;;0.73;0.73;;;18.90;41.20;;;;;;5000798;28;20430;-86
2021/05/24 06:18:05;;;;;;;1.80;0.70;;;19.10;41.90;;;;;;5027245;28;20279;-88
2021/05/24 06:20:33;;;;;;;1.20;1.20;;;18.60;42.20;;;;;;5013451;28;20234;-87
2021/05/24 06:22:58;;;;;;;7.07;6.37;;;18.70;41.20;;;;;;5012836;28;20267;-88
2021/05/24 06:25:24;;;;;;;0.63;0.63;;;19.00;41.30;;;;;;5014389;28;20500;-88
2021/05/24 06:27:50;;;;;;;2.00;1.10;;;19.10;40.50;;;;;;5014018;28;20183;-89
2021/05/24 06:30:16;;;;;;;0.70;0.70;;;19.40;41.40;;;;;;5013842;28;20172;-85
2021/05/24 06:32:41;;;;;;;1.27;1.27;;;19.20;40.60;;;;;;5013838;28;20628;-88
2021/05/24 06:35:07;;;;;;;1.17;1.17;;;20.60;41.50;;;;;;5014263;28;20414;-88
2021/05/24 06:37:33;;;;;;;1.23;0.87;;;19.50;40.30;;;;;;5013884;28;20260;-88
2021/05/24 06:39:59;;;;;;;2.20;0.60;;;19.70;39.80;;;;;;5012850;28;20510;-88
2021/05/24 06:42:25;;;;;;;0.73;0.70;;;19.90;39.10;;;;;;5013219;28;20416;-89
2021/05/24 06:44:51;;;;;;;0.60;0.60;;;19.90;39.70;;;;;;5013747;28;20216;-89
2021/05/24 06:47:17;;;;;;;1.60;0.80;;;19.80;39.60;;;;;;5013944;28;20416;-89
2021/05/24 06:49:42;;;;;;;0.77;0.73;;;20.90;40.00;;;;;;5014517;28;20408;-88
2021/05/24 06:52:08;;;;;;;1.57;1.00;;;20.20;38.90;;;;;;5014800;28;20196;-88
2021/05/24 06:54:36;;;;;;;2.20;0.90;;;18.80;38.40;;;;;;5014808;28;20195;-87
2021/05/24 06:57:04;;;;;;;2.13;0.70;;;20.00;39.10;;;;;;5014793;28;20569;-89
2021/05/24 06:59:30;;;;;;;3.30;1.10;;;20.30;38.60;;;;;;4996979;28;20478;-88
2021/05/24 07:01:55;;;;;;;1.10;1.10;;;20.40;38.70;;;;;;5016509;28;20428;-88
2021/05/24 07:04:21;;;;;;;0.67;0.67;;;20.00;38.40;;;;;;5017009;28;20419;-88
2021/05/24 07:06:46;;;;;;;2.90;1.00;;;20.40;38.70;;;;;;5017113;28;20180;-89
2021/05/24 07:09:12;;;;;;;2.13;0.90;;;20.60;39.60;;;;;;5014556;28;20172;-88
2021/05/24 07:11:38;;;;;;;0.80;0.80;;;19.30;38.40;;;;;;5014681;28;20530;-89
2021/05/24 07:14:04;;;;;;;3.90;0.93;;;21.20;38.80;;;;;;5014470;28;20175;-89
2021/05/24 07:16:29;;;;;;;0.87;0.73;;;19.60;37.70;;;;;;5014320;28;20195;-89
2021/05/24 07:18:55;;;;;;;1.00;1.00;;;22.50;40.00;;;;;;5015428;28;20455;-89
2021/05/24 07:21:21;;;;;;;0.70;0.70;;;22.10;39.20;;;;;;5014162;28;20251;-89
2021/05/24 07:23:46;;;;;;;2.93;1.10;;;20.70;38.40;;;;;;4320446;28;10000768;-88
2021/05/24 07:26:12;;;;;;;1.70;0.97;;;21.30;38.70;;;;;;5021271;28;20179;-89
2021/05/24 07:28:37;;;;;;;1.07;1.07;;;21.80;38.10;;;;;;5019454;28;20184;-87
2021/05/24 07:31:03;;;;;;;1.07;0.77;;;21.50;37.40;;;;;;5012053;28;20256;-88
2021/05/24 07:33:29;;;;;;;0.90;0.90;;;21.70;37.50;;;;;;5010405;28;20280;-88
2021/05/24 07:35:55;;;;;;;1.60;1.50;;;22.70;38.20;;;;;;5010303;28;20230;-89
2021/05/24 07:38:21;;;;;;;4.20;2.70;;;24.20;37.70;;;;;;5010083;28;20675;-88
2021/05/24 07:40:46;;;;;;;1.40;0.90;;;21.90;35.70;;;;;;5011605;28;20404;-88
2021/05/24 07:43:12;;;;;;;0.80;0.80;;;22.70;36.50;;;;;;5009967;28;20224;-89
2021/05/24 07:45:37;;;;;;;1.10;1.10;;;22.30;35.90;;;;;;5010386;28;20180;-87
2021/05/24 07:48:03;;;;;;;0.80;0.80;;;23.20;35.90;;;;;;5010905;28;20524;-88
2021/05/24 07:50:29;;;;;;;0.70;0.70;;;23.30;35.80;;;;;;5011551;28;20181;-89
2021/05/24 07:52:54;;;;;;;0.80;0.80;;;23.40;36.10;;;;;;5010135;28;20432;-90
2021/05/24 07:55:20;;;;;;;1.00;0.90;;;23.50;37.20;;;;;;5015856;28;20177;-89
2021/05/24 07:57:46;;;;;;;1.23;1.23;;;22.40;36.30;;;;;;5015845;28;20168;-88
2021/05/24 08:00:12;;;;;;;0.80;0.80;;;22.40;36.90;;;;;;4997734;28;20183;-88
2021/05/24 08:02:40;;;;;;;0.70;0.70;;;22.20;36.40;;;;;;4997743;28;20493;-88
2021/05/24 08:05:08;;;;;;;1.13;1.07;;;22.70;37.00;;;;;;5017882;28;20423;-90
2021/05/24 08:07:35;;;;;;;1.10;1.07;;;22.30;36.80;;;;;;5023452;28;20422;-92
2021/05/24 08:10:00;;;;;;;0.80;0.80;;;22.30;36.40;;;;;;5028077;28;20490;-90
2021/05/24 08:12:26;;;;;;;2.43;1.07;;;23.00;36.10;;;;;;5015560;28;20426;-89
2021/05/24 08:14:52;;;;;;;1.23;0.83;;;23.40;36.10;;;;;;5039024;28;20603;-88
2021/05/24 08:17:19;;;;;;;1.53;0.90;;;23.60;36.10;;;;;;5040132;28;20168;-90
2021/05/24 08:19:47;;;;;;;1.43;1.30;;;22.30;37.20;;;;;;5029292;28;20478;-88
2021/05/24 08:22:13;;;;;;;2.40;0.93;;;21.10;37.20;;;;;;5030007;28;20403;-90
2021/05/24 08:24:39;;;;;;;0.67;0.67;;;21.40;40.40;;;;;;5045001;28;20442;-89
2021/05/24 08:27:05;;;;;;;1.27;1.17;;;20.50;39.60;;;;;;5019971;28;20230;-88
2021/05/24 08:29:31;;;;;;;0.90;0.90;;;20.00;40.10;;;;;;5022123;28;20427;-90
2021/05/24 08:32:03;;;;;;;1.00;1.00;;;19.30;44.50;;;;;;5025912;28;20175;-89
2021/05/24 08:34:32;;;;;;;1.60;1.10;;;19.30;44.70;;;;;;5029557;28;20253;-90
2021/05/24 08:36:57;;;;;;;0.83;0.83;;;21.00;43.30;;;;;;5045680;28;20398;-90
2021/05/24 08:39:23;;;;;;;1.30;1.20;;;21.20;46.90;;;;;;5028408;28;20470;-89
2021/05/24 08:41:53;;;;;;;0.80;0.80;;;20.10;44.70;;;;;;5027734;28;20239;-90
2021/05/24 08:44:23;;;;;;;2.47;1.07;;;18.20;43.60;;;;;;5046591;28;20234;-90
2021/05/24 08:46:49;;;;;;;0.70;0.70;;;18.50;42.70;;;;;;5032224;28;20445;-87
2021/05/24 08:49:24;;;;;;;1.97;1.03;;;18.60;44.80;;;;;;5035151;28;20399;-89
2021/05/24 08:51:53;;;;;;;1.17;1.17;;;18.40;44.20;;;;;;5032560;28;20429;-88
2021/05/24 08:54:21;;;;;;;0.97;0.80;;;20.10;45.40;;;;;;5030922;28;20418;-90
2021/05/24 08:56:56;;;;;;;0.93;0.93;;;17.70;43.20;;;;;;5030978;28;20423;-89
2021/05/24 08:59:24;;;;;;;4.40;1.23;;;19.70;45.80;;;;;;5031094;28;20477;-89
2021/05/24 09:01:50;;;;;;;4.97;1.27;;;17.70;43.20;;;;;;5033014;28;20425;-89
2021/05/24 09:04:17;;;;;;;1.03;0.80;;;19.90;47.60;;;;;;4680343;28;9999928;-87
2021/05/24 09:06:49;;;;;;;4.07;1.20;;;18.30;46.10;;;;;;5047806;28;20211;-90
2021/05/24 09:09:20;;;;;;;1.00;1.00;;;20.40;44.80;;;;;;5049112;28;20415;-89
2021/05/24 09:11:47;;;;;;;1.10;1.10;;;18.30;43.80;;;;;;5026926;28;20465;-89
2021/05/24 09:14:20;;;;;;;1.37;1.27;;;20.20;45.40;;;;;;5032036;28;20495;-89
2021/05/24 09:17:05;;;;;;;2.03;1.00;;;20.30;45.10;;;;;;5013222;28;20451;-89
2021/05/24 09:19:36;;;;;;;1.47;1.10;;;18.30;42.30;;;;;;5028778;28;20497;-89
2021/05/24 09:22:09;;;;;;;1.47;0.90;;;20.80;44.80;;;;;;5029557;28;20498;-88
2021/05/24 09:24:39;;;;;;;3.30;0.80;;;19.10;43.80;;;;;;5024039;28;20948;-88
2021/05/24 09:27:28;;;;;;;3.73;2.80;;;20.20;43.80;;;;;;5020573;28;20438;-91
2021/05/24 09:29:58;;;;;;;4.33;4.00;;;19.40;43.80;;;;;;5020269;28;20430;-89
2021/05/24 09:32:25;;;;;;;2.40;0.93;;;20.70;45.20;;;;;;5019637;28;20481;-88
2021/05/24 09:34:57;;;;;;;2.10;0.93;;;19.80;45.20;;;;;;5026674;28;20426;-89
2021/05/24 09:37:47;;;;;;;;;;;;;;;;;;;;;
2021/05/24 09:40:26;;;;;;;0.83;0.80;;;18.70;44.60;;;;;;5047122;28;20466;-92
2021/05/24 09:42:53;;;;;;;1.27;0.90;;;19.30;45.20;;;;;;5017016;28;20496;-86
2021/05/24 09:45:19;;;;;;;1.20;1.10;;;18.50;43.70;;;;;;5013828;28;20430;-87
2021/05/24 09:47:46;;;;;;;1.03;0.97;;;18.60;43.50;;;;;;5032445;28;20418;-87
2021/05/24 09:50:22;;;;;;;0.70;0.70;;;21.10;43.80;;;;;;5015447;28;20435;-86
2021/05/24 09:52:48;;;;;;;3.53;3.33;;;20.90;42.80;;;;;;5033406;28;20450;-87
2021/05/24 09:55:29;;;;;;;1.03;1.03;;;21.80;41.30;;;;;;5032769;28;20473;-88
2021/05/24 09:57:56;;;;;;;2.43;1.03;;;20.10;40.20;;;;;;5017038;28;20940;-86
2021/05/24 10:00:39;;;;;;;3.40;1.10;;;20.90;41.40;;;;;;5032641;28;20423;-85
2021/05/24 10:03:10;;;;;;;2.37;1.50;;;19.50;40.90;;;;;;5015195;28;20422;-88
2021/05/24 10:05:51;;;;;;;2.10;1.30;;;19.80;40.20;;;;;;5028684;28;20426;-87
2021/05/24 10:08:17;;;;;;;1.63;1.20;;;19.40;41.70;;;;;;5025446;28;20403;-87
2021/05/24 10:10:43;;;;;;;1.10;1.07;;;20.20;43.50;;;;;;5016276;28;20755;-88
2021/05/24 10:13:11;;;;;;;0.90;0.90;;;17.70;43.80;;;;;;5032603;28;20422;-87
2021/05/24 10:15:42;;;;;;;1.50;0.93;;;19.00;47.50;;;;;;5035773;28;20419;-87
2021/05/24 10:18:08;;;;;;;2.03;1.10;;;18.60;49.40;;;;;;5047533;28;20470;-91
2021/05/24 10:20:39;;;;;;;2.30;1.40;;;17.00;51.40;;;;;;5031294;28;20453;-90
2021/05/24 10:23:11;;;;;;;1.23;1.20;;;16.70;51.10;;;;;;5048709;28;20411;-88
2021/05/24 10:25:56;;;;;;;1.37;1.27;;;16.20;52.60;;;;;;5017537;28;20419;-89
2021/05/24 10:28:27;;;;;;;1.43;1.43;;;16.30;53.60;;;;;;5047136;28;20436;-88
2021/05/24 10:31:01;;;;;;;2.10;1.80;;;16.20;55.00;;;;;;5012716;28;20426;-89
2021/05/24 10:34:14;;;;;;;2.40;1.57;;;15.60;56.60;;;;;;5049527;28;20487;-88
2021/05/24 10:36:41;;;;;;;3.20;1.30;;;16.00;57.70;;;;;;5050045;28;20442;-89
2021/05/24 10:39:19;;;;;;;9.07;1.87;;;16.70;57.50;;;;;;5031912;28;20462;-88
2021/05/24 10:42:05;;;;;;;1.60;1.03;;;16.70;57.90;;;;;;5034641;28;20402;-89
2021/05/24 10:44:49;;;;;;;1.33;1.20;;;17.60;56.80;;;;;;5014125;28;20471;-91
2021/05/24 10:47:37;;;;;;;2.10;1.30;;;17.60;58.10;;;;;;4793802;28;10000960;-90
2021/05/24 10:50:10;;;;;;;1.20;1.10;;;15.80;55.50;;;;;;5011958;28;20228;-89
2021/05/24 10:53:12;;;;;;;1.13;1.07;;;16.20;58.60;;;;;;5010876;28;20440;-89
2021/05/24 10:55:47;;;;;;;2.17;1.77;;;15.10;56.30;;;;;;5010388;28;20404;-91
2021/05/24 10:58:16;;;;;;;2.17;1.63;;;13.70;59.40;;;;;;5011075;28;20467;-91
2021/05/24 11:01:04;;;;;;;1.70;1.20;;;16.80;60.50;;;;;;5010706;28;20432;-90
2021/05/24 11:03:30;;;;;;;7.27;1.47;;;16.60;58.70;;;;;;5009150;28;20801;-90
2021/05/24 11:06:17;;;;;;;2.00;1.63;;;16.80;58.70;;;;;;5008527;28;20404;-91
2021/05/24 11:09:28;;;;;;;3.13;1.73;;;15.30;56.00;;;;;;5007192;28;20428;-89
2021/05/24 11:11:54;;;;;;;1.73;1.63;;;14.80;57.30;;;;;;5003375;28;20424;-85
2021/05/24 11:14:20;;;;;;;1.77;1.53;;;15.20;58.00;;;;;;5004318;28;20965;-88
2021/05/24 11:16:58;;;;;;;1.20;1.20;;;15.60;59.00;;;;;;5007337;28;20424;-90
2021/05/24 11:19:34;;;;;;;1.83;1.73;;;14.90;57.40;;;;;;5042715;23;20566;-89
2021/05/24 11:22:43;;;;;;;2.30;2.10;;;16.70;60.50;;;;;;5035355;28;20428;-88
2021/05/24 11:28:45;;;;;;;1.10;1.10;;;14.90;58.20;;;;;;5053778;28;20428;-88
2021/05/24 11:31:29;;;;;;;6.20;1.67;;;15.00;57.50;;;;;;5055902;28;20453;-89
2021/05/24 11:34:39;;;;;;;2.47;1.50;;;15.80;59.60;;;;;;5055336;28;20426;-88
2021/05/24 11:37:46;;;;;;;2.17;2.17;;;16.40;60.90;;;;;;5051170;28;20769;-89
2021/05/24 11:40:17;;;;;;;1.80;1.70;;;15.70;58.90;;;;;;5035821;28;20427;-89
2021/05/24 11:42:47;;;;;;;1.80;1.70;;;14.70;60.70;;;;;;5037436;28;20465;-86
2021/05/24 11:45:22;;;;;;;1.33;1.33;;;15.30;61.90;;;;;;5036703;28;20457;-86
2021/05/24 11:47:56;;;;;;;2.10;2.00;;;14.90;61.80;;;;;;5035722;28;20406;-85
2021/05/24 11:50:23;;;;;;;2.50;2.40;;;14.90;63.00;;;;;;5036322;28;20401;-88
2021/05/24 11:52:49;;;;;;;5.60;2.57;;;14.80;63.70;;;;;;5037439;28;20410;-85
2021/05/24 11:55:15;;;;;;;2.83;2.33;;;15.50;65.70;;;;;;5035178;28;20399;-86
2021/05/24 11:57:43;;;;;;;2.07;1.93;;;14.80;65.20;;;;;;5035717;28;20172;-86
2021/05/24 12:00:11;;;;;;;2.83;1.60;;;14.90;66.40;;;;;;5035391;28;20217;-85
2021/05/24 12:02:38;;;;;;;2.00;2.00;;;15.00;66.80;;;;;;5035765;28;20422;-86
2021/05/24 12:05:04;;;;;;;1.87;1.87;;;15.00;68.10;;;;;;5035997;28;20902;-85
2021/05/24 12:07:30;;;;;;;2.53;1.40;;;15.00;68.80;;;;;;5035310;28;20422;-85
2021/05/24 12:09:58;;;;;;;4.13;2.90;;;14.90;68.30;;;;;;4686705;28;10001334;-84
2021/05/24 12:12:39;;;;;;;2.33;2.10;;;14.70;68.30;;;;;;5239029;23;21137;-88
2021/05/24 12:18:00;;;;;;;4.00;3.70;;;15.30;76.70;;;;;;5389272;23;20513;-88
2021/05/24 12:20:28;;;;;;;2.30;1.73;;;15.70;80.80;;;;;;5039285;28;20426;-87
2021/05/24 12:22:57;;;;;;;2.63;2.50;;;14.40;77.90;;;;;;5108403;23;20479;-88
2021/05/24 12:25:25;;;;;;;3.23;2.37;;;15.40;78.20;;;;;;5192304;23;20508;-87
2021/05/24 12:27:54;;;;;;;2.57;2.43;;;15.40;78.70;;;;;;5049299;28;20891;-89
2021/05/24 12:30:42;;;;;;;2.70;2.40;;;15.20;76.10;;;;;;5049405;28;20457;-88
2021/05/24 12:33:10;;;;;;;3.60;1.87;;;14.40;74.40;;;;;;5055240;28;20423;-87
2021/05/24 12:35:49;;;;;;;1.90;1.80;;;16.50;78.30;;;;;;5051259;28;20434;-88
2021/05/24 12:38:41;;;;;;;30.83;26.80;;;14.30;75.00;;;;;;5052408;28;20457;-89
2021/05/24 12:41:21;;;;;;;2.87;2.67;;;14.30;78.20;;;;;;5045425;28;20440;-88
2021/05/24 12:43:55;;;;;;;3.80;3.60;;;14.30;75.80;;;;;;5052505;28;20430;-89
2021/05/24 12:46:45;;;;;;;9.33;2.40;;;15.10;81.50;;;;;;5051790;28;20449;-87
2021/05/24 12:49:15;;;;;;;2.70;2.60;;;14.20;79.10;;;;;;5035043;28;20434;-90
2021/05/24 12:52:00;;;;;;;1.70;1.60;;;14.50;81.20;;;;;;5052097;28;20448;-88
2021/05/24 12:54:27;;;;;;;1.90;1.80;;;15.00;81.80;;;;;;5104802;23;20493;-89
2021/05/24 12:56:53;;;;;;;2.47;1.70;;;15.10;81.40;;;;;;5012136;28;20427;-89
2021/05/24 12:59:55;;;;;;;2.23;1.93;;;14.70;79.10;;;;;;5033171;28;20248;-89
2021/05/24 13:10:14;;;;;;;1.30;1.30;;;15.10;71.60;;;;;;5501595;23;20506;-88